createdAt,value
2022-12-18T00:00:30.371Z,102127.50
2022-12-18T00:05:32.395Z,102127.50
2022-12-18T00:10:34.397Z,102132.81
2022-12-18T00:15:37.448Z,102136.97
2022-12-18T00:20:40.683Z,102143.91
2022-12-18T00:25:42.682Z,102145.59
2022-12-18T00:30:44.771Z,102152.47
2022-12-18T00:35:46.791Z,102149.75
2022-12-18T00:40:50.197Z,102156.66
2022-12-18T00:45:52.283Z,102168.72
2022-12-18T00:50:54.410Z,102191.19
2022-12-18T00:55:56.450Z,102194.69
2022-12-18T01:00:58.423Z,102191.09
2022-12-18T01:06:00.387Z,102197.97
2022-12-18T01:11:09.317Z,102204.97
2022-12-18T01:16:17.009Z,102210.03
2022-12-18T01:21:19.015Z,102211.75
2022-12-18T01:26:21.049Z,102221.34
2022-12-18T01:31:25.881Z,102220.44
2022-12-18T01:36:33.265Z,102223.81
2022-12-18T01:41:54.334Z,102225.50
2022-12-18T01:46:56.343Z,102229.81
2022-12-18T01:51:58.289Z,102235.00
2022-12-18T01:57:02.178Z,102237.47
2022-12-18T02:07:39.236Z,102254.88
2022-12-18T02:12:50.755Z,102253.16
2022-12-18T02:18:29.226Z,102264.47
2022-12-18T02:23:49.815Z,102266.81
2022-12-18T02:29:02.000Z,102269.53
2022-12-18T02:34:07.988Z,102280.84
2022-12-18T02:39:13.568Z,102292.91
2022-12-18T02:44:16.093Z,102298.88
2022-12-18T02:49:38.612Z,102301.50
2022-12-18T02:54:54.401Z,102297.97
2022-12-18T03:00:03.128Z,102303.19
2022-12-18T03:05:16.562Z,102308.25
2022-12-18T03:10:25.794Z,102313.44
2022-12-18T03:15:38.962Z,102326.31
2022-12-18T03:20:44.725Z,102325.41
2022-12-18T03:25:49.645Z,102317.47
2022-12-18T03:30:58.685Z,102319.97
2022-12-18T03:36:00.675Z,102334.63
2022-12-18T03:41:15.728Z,102342.28
2022-12-18T03:46:27.551Z,102352.56
2022-12-18T03:51:47.755Z,102356.06
2022-12-18T03:56:58.457Z,102364.63
2022-12-18T04:02:02.952Z,102367.09
2022-12-18T04:07:06.003Z,102382.69
2022-12-18T04:12:08.130Z,102403.47
2022-12-18T04:17:10.234Z,102407.75
2022-12-18T04:22:12.260Z,102393.84
2022-12-18T04:27:14.334Z,102407.88
2022-12-18T04:32:16.238Z,102406.06
2022-12-18T04:37:18.260Z,102419.03
2022-12-18T04:42:20.288Z,102426.03
2022-12-18T04:47:22.356Z,102431.13
2022-12-18T04:52:24.502Z,102429.41
2022-12-18T04:57:27.443Z,102441.63
2022-12-18T05:02:29.546Z,102439.81
2022-12-18T05:07:31.693Z,102447.59
2022-12-18T05:12:33.742Z,102452.00
2022-12-18T05:17:35.750Z,102445.13
2022-12-18T05:22:37.700Z,102447.72
2022-12-18T05:27:39.672Z,102465.91
2022-12-18T05:32:42.020Z,102477.06
2022-12-18T05:37:43.991Z,102481.47
2022-12-18T05:42:46.018Z,102493.44
2022-12-18T05:47:48.012Z,102497.84
2022-12-18T05:52:49.951Z,102492.66
2022-12-18T05:57:52.156Z,102503.81
2022-12-18T06:02:54.282Z,102501.22
2022-12-18T06:07:56.355Z,102519.53
2022-12-18T06:12:58.434Z,102520.44
2022-12-18T06:18:02.038Z,102516.03
2022-12-18T06:23:04.840Z,102524.72
2022-12-18T06:28:07.150Z,102536.78
2022-12-18T06:33:09.244Z,102548.88
2022-12-18T06:38:11.328Z,102565.47
2022-12-18T06:43:13.354Z,102556.78
2022-12-18T06:48:15.458Z,102562.25
2022-12-18T06:53:17.422Z,102576.13
2022-12-18T06:58:19.666Z,102587.28
2022-12-18T07:03:21.682Z,102600.28
2022-12-18T07:08:23.722Z,102600.28
2022-12-18T07:13:25.925Z,102605.47
2022-12-18T07:18:27.957Z,102625.47
2022-12-18T07:23:29.923Z,102643.66
2022-12-18T07:28:33.482Z,102648.06
2022-12-18T07:33:36.043Z,102660.13
2022-12-18T07:38:38.826Z,102668.97
2022-12-18T07:43:42.480Z,102663.78
2022-12-18T07:48:49.584Z,102666.50
2022-12-18T07:53:52.745Z,102676.13
2022-12-18T07:58:55.328Z,102679.63
2022-12-18T08:03:58.384Z,102682.34
2022-12-18T08:09:00.457Z,102683.25
2022-12-18T08:14:02.509Z,102686.78
2022-12-18T08:19:04.874Z,102696.50
2022-12-18T08:24:07.210Z,102707.81
2022-12-18T08:29:10.333Z,102709.75
2022-12-18T08:34:12.347Z,102701.06
2022-12-18T08:39:14.411Z,102704.69
2022-12-18T08:44:49.821Z,102710.03
2022-12-18T08:49:51.838Z,102715.09
2022-12-18T08:54:53.837Z,102723.25
2022-12-18T08:59:55.815Z,102738.19
2022-12-18T09:04:58.027Z,102747.03
2022-12-18T09:10:00.014Z,102754.16
2022-12-18T09:15:02.018Z,102755.22
2022-12-18T09:20:04.528Z,102756.25
2022-12-18T09:25:09.269Z,102749.63
2022-12-18T09:30:11.869Z,102758.59
2022-12-18T09:35:13.963Z,102760.56
2022-12-18T09:40:21.381Z,102789.41
2022-12-18T09:45:24.924Z,102761.72
2022-12-18T09:50:35.815Z,102746.53
2022-12-18T09:55:41.510Z,102758.88
2022-12-18T10:00:44.489Z,102762.53
2022-12-18T10:06:14.545Z,102760.06
2022-12-18T10:11:55.325Z,102758.38
2022-12-18T10:17:19.087Z,102768.88
2022-12-18T10:22:47.343Z,102768.09
2022-12-18T10:27:53.015Z,102771.63
2022-12-18T10:32:57.447Z,102774.88
2022-12-18T10:38:05.182Z,102761.47
2022-12-18T10:43:14.500Z,102778.75
2022-12-18T10:48:23.733Z,102774.84
2022-12-18T10:53:28.277Z,102766.41
2022-12-18T10:58:41.026Z,102751.09
2022-12-18T11:03:56.371Z,102747.19
2022-12-18T11:09:09.345Z,102761.47
2022-12-18T11:14:22.926Z,102755.47
2022-12-18T11:19:38.428Z,102754.84
2022-12-18T11:24:41.153Z,102751.97
2022-12-18T11:29:46.559Z,102761.44
2022-12-18T11:34:59.041Z,102759.88
2022-12-18T11:40:09.503Z,102765.09
2022-12-18T11:45:14.528Z,102770.69
2022-12-18T11:50:25.415Z,102790.00
2022-12-18T11:55:27.441Z,102791.72
2022-12-18T12:00:30.077Z,102800.00
2022-12-18T12:05:57.197Z,102806.66
2022-12-18T12:11:20.734Z,102820.41
2022-12-18T12:16:34.743Z,102821.06
2022-12-18T12:21:48.487Z,102826.47
2022-12-18T12:27:03.207Z,102832.31
2022-12-18T12:32:47.166Z,102838.41
2022-12-18T12:38:08.115Z,102852.03
2022-12-18T12:43:26.616Z,102850.09
2022-12-18T12:48:51.613Z,102848.00
2022-12-18T12:53:57.740Z,102840.59
2022-12-18T12:59:19.057Z,102838.00
2022-12-18T13:04:42.168Z,102836.97
2022-12-18T13:10:14.424Z,102840.47
2022-12-18T13:15:25.806Z,102837.88
2022-12-18T13:20:35.258Z,102825.91
2022-12-18T13:25:39.060Z,102836.78
2022-12-18T13:30:53.273Z,102842.47
2022-12-18T13:36:03.888Z,102849.72
2022-12-18T13:41:24.520Z,102862.13
2022-12-18T13:46:50.871Z,102870.00
2022-12-18T13:51:55.886Z,102885.16
2022-12-18T13:56:58.033Z,102895.09
2022-12-18T14:02:04.352Z,102905.91
2022-12-18T14:07:15.432Z,102917.56
2022-12-18T14:12:43.977Z,102924.50
2022-12-18T14:17:48.389Z,102919.31
2022-12-18T14:22:51.183Z,102909.06
2022-12-18T14:28:11.593Z,102915.16
2022-12-18T14:33:16.746Z,102916.81
2022-12-18T14:38:24.047Z,102918.06
2022-12-18T14:43:27.344Z,102921.28
2022-12-18T14:48:44.196Z,102918.09
2022-12-18T14:53:54.338Z,102909.50
2022-12-18T14:59:05.037Z,102901.44
2022-12-18T15:04:23.704Z,102907.88
2022-12-18T15:09:27.912Z,102911.00
2022-12-18T15:14:43.352Z,102923.81
2022-12-18T15:19:47.934Z,102921.25
2022-12-18T15:24:51.403Z,102920.69
2022-12-18T15:30:20.237Z,102927.72
2022-12-18T15:35:23.851Z,102934.13
2022-12-18T15:40:26.711Z,102933.66
2022-12-18T15:45:30.122Z,102952.28
2022-12-18T15:50:32.952Z,102950.69
2022-12-18T15:56:00.719Z,102939.41
2022-12-18T16:01:04.199Z,102953.72
2022-12-18T16:06:09.056Z,102951.28
2022-12-18T16:11:45.330Z,102948.28
2022-12-18T16:16:52.555Z,102961.25
2022-12-18T16:21:58.353Z,102958.97
2022-12-18T16:27:02.214Z,102951.03
2022-12-18T16:32:04.898Z,102939.47
2022-12-18T16:37:11.776Z,102960.16
2022-12-18T16:42:20.778Z,102963.66
2022-12-18T16:47:23.544Z,102964.44
2022-12-18T16:52:26.793Z,102977.84
2022-12-18T16:57:29.944Z,102971.91
2022-12-18T17:02:33.639Z,102976.94
2022-12-18T17:07:37.069Z,102960.34
2022-12-18T17:12:40.001Z,102942.22
2022-12-18T17:17:42.557Z,102940.09
2022-12-18T17:22:46.716Z,102943.59
2022-12-18T17:27:52.240Z,102942.69
2022-12-18T17:32:55.385Z,102954.25
2022-12-18T17:37:58.652Z,102950.44
2022-12-18T17:43:01.593Z,102943.91
2022-12-18T17:48:06.397Z,102951.81
2022-12-18T17:53:09.896Z,102942.22
2022-12-18T17:58:13.441Z,102949.69
2022-12-18T18:03:16.965Z,102941.31
2022-12-18T18:08:23.396Z,102933.41
2022-12-18T18:13:47.141Z,102919.56
2022-12-18T18:18:50.379Z,102941.16
2022-12-18T18:23:54.988Z,102947.88
2022-12-18T18:28:59.439Z,102926.84
2022-12-18T18:34:05.215Z,102935.84
2022-12-18T18:39:09.419Z,102923.06
2022-12-18T18:44:13.866Z,102923.50
2022-12-18T18:49:20.072Z,102930.66
2022-12-18T18:54:23.818Z,102919.88
2022-12-18T18:59:31.582Z,102936.94
2022-12-18T19:04:35.075Z,102937.69
2022-12-18T19:09:38.323Z,102945.44
2022-12-18T19:14:43.577Z,102959.75
2022-12-18T19:19:46.277Z,102961.56
2022-12-18T19:24:49.479Z,102964.94
2022-12-18T19:29:52.505Z,102976.03
2022-12-18T19:34:55.458Z,102990.47
2022-12-18T19:39:59.418Z,102982.72
2022-12-18T19:45:06.697Z,103002.06
2022-12-18T19:50:10.968Z,102987.75
2022-12-18T19:55:14.518Z,102999.44
2022-12-18T20:00:19.003Z,103009.03
2022-12-18T20:05:25.628Z,103015.88
2022-12-18T20:10:28.413Z,103021.66
2022-12-18T20:15:32.860Z,103004.31
2022-12-18T20:20:35.922Z,102995.03
2022-12-18T20:25:39.971Z,102973.88
2022-12-18T20:30:42.685Z,102956.66
2022-12-18T20:35:46.133Z,102946.16
2022-12-18T20:40:50.854Z,102932.31
2022-12-18T20:46:01.914Z,102942.31
2022-12-18T20:51:07.562Z,102944.13
2022-12-18T20:56:12.682Z,102952.19
2022-12-18T21:01:17.926Z,102961.03
2022-12-18T21:06:22.805Z,102948.38
2022-12-18T21:11:50.226Z,102950.97
2022-12-18T21:16:55.471Z,102955.22
2022-12-18T21:21:58.964Z,102948.38
2022-12-18T21:27:02.104Z,102953.88
2022-12-18T21:32:05.828Z,102949.59
2022-12-18T21:37:07.946Z,102950.50
2022-12-18T21:42:30.661Z,102949.28
2022-12-18T21:47:32.638Z,102937.44
2022-12-18T21:52:34.661Z,102940.19
2022-12-18T21:57:37.894Z,102935.94
2022-12-18T22:02:40.060Z,102932.72
2022-12-18T22:07:42.285Z,102933.75
2022-12-18T22:12:45.834Z,102939.69
2022-12-18T22:17:48.034Z,102928.28
2022-12-18T22:22:51.980Z,102913.25
2022-12-18T22:28:12.411Z,102912.66
2022-12-18T22:33:14.435Z,102919.16
2022-12-18T22:38:17.829Z,102932.69
2022-12-18T22:43:19.807Z,102928.13
2022-12-18T22:48:22.129Z,102926.44
2022-12-18T22:53:24.240Z,102909.28
2022-12-18T22:58:26.433Z,102900.78
2022-12-18T23:03:29.088Z,102889.84
2022-12-18T23:08:31.212Z,102893.66
2022-12-18T23:13:34.878Z,102886.34
2022-12-18T23:18:37.182Z,102866.59
2022-12-18T23:23:39.799Z,102867.50
2022-12-18T23:28:42.446Z,102875.25
2022-12-18T23:33:45.756Z,102854.88
2022-12-18T23:38:52.436Z,102849.56
2022-12-18T23:43:55.079Z,102835.13
2022-12-18T23:49:02.719Z,102831.19
2022-12-18T23:54:06.947Z,102838.34
2022-12-18T23:59:09.062Z,102822.81
